sensor_id;sensor_type;location;lat;lon;timestamp;P1;durP1;ratioP1;P2;durP2;ratioP2
71665;SDS011;59503;53.486;10.196;2022-10-26T00:03:32;19.08;;;6.88;;
71665;SDS011;59503;53.486;10.196;2022-10-26T00:06:03;17.92;;;6.60;;
71665;SDS011;59503;53.486;10.196;2022-10-26T00:08:30;19.63;;;7.67;;
71665;SDS011;59503;53.486;10.196;2022-10-26T00:10:56;22.13;;;7.72;;
71665;SDS011;59503;53.486;10.196;2022-10-26T00:13:21;17.37;;;7.00;;
71665;SDS011;59503;53.486;10.196;2022-10-26T00:15:47;30.13;;;9.35;;
71665;SDS011;59503;53.486;10.196;2022-10-26T00:18:12;30.87;;;10.30;;
71665;SDS011;59503;53.486;10.196;2022-10-26T00:20:38;31.87;;;9.70;;
71665;SDS011;59503;53.486;10.196;2022-10-26T00:23:03;32.10;;;9.68;;
71665;SDS011;59503;53.486;10.196;2022-10-26T00:25:29;27.23;;;8.90;;
71665;SDS011;59503;53.486;10.196;2022-10-26T00:27:54;32.97;;;9.17;;
71665;SDS011;59503;53.486;10.196;2022-10-26T00:30:20;27.20;;;8.27;;
71665;SDS011;59503;53.486;10.196;2022-10-26T00:32:45;40.63;;;10.27;;
71665;SDS011;59503;53.486;10.196;2022-10-26T00:35:10;34.50;;;9.83;;
71665;SDS011;59503;53.486;10.196;2022-10-26T00:37:36;41.07;;;10.47;;
71665;SDS011;59503;53.486;10.196;2022-10-26T00:40:01;39.73;;;9.57;;
71665;SDS011;59503;53.486;10.196;2022-10-26T00:42:27;39.42;;;10.90;;
71665;SDS011;59503;53.486;10.196;2022-10-26T00:44:56;39.50;;;9.87;;
71665;SDS011;59503;53.486;10.196;2022-10-26T00:50:14;48.95;;;10.95;;
71665;SDS011;59503;53.486;10.196;2022-10-26T00:52:44;49.97;;;11.30;;
71665;SDS011;59503;53.486;10.196;2022-10-26T00:55:10;33.70;;;9.18;;
71665;SDS011;59503;53.486;10.196;2022-10-26T00:57:36;30.87;;;8.77;;
71665;SDS011;59503;53.486;10.196;2022-10-26T01:00:03;29.85;;;8.77;;
71665;SDS011;59503;53.486;10.196;2022-10-26T01:02:31;30.98;;;8.35;;
71665;SDS011;59503;53.486;10.196;2022-10-26T01:04:57;28.00;;;8.30;;
71665;SDS011;59503;53.486;10.196;2022-10-26T01:07:24;39.97;;;10.13;;
71665;SDS011;59503;53.486;10.196;2022-10-26T01:09:50;35.97;;;10.68;;
71665;SDS011;59503;53.486;10.196;2022-10-26T01:12:17;39.20;;;9.23;;
71665;SDS011;59503;53.486;10.196;2022-10-26T01:14:42;35.80;;;9.43;;
71665;SDS011;59503;53.486;10.196;2022-10-26T01:31:21;35.83;;;9.50;;
71665;SDS011;59503;53.486;10.196;2022-10-26T01:33:59;48.20;;;10.23;;
71665;SDS011;59503;53.486;10.196;2022-10-26T01:39:13;41.67;;;10.13;;
71665;SDS011;59503;53.486;10.196;2022-10-26T01:41:49;45.80;;;9.90;;
71665;SDS011;59503;53.486;10.196;2022-10-26T01:44:24;38.08;;;9.77;;
71665;SDS011;59503;53.486;10.196;2022-10-26T01:46:53;28.20;;;8.13;;
71665;SDS011;59503;53.486;10.196;2022-10-26T01:49:23;33.45;;;8.90;;
71665;SDS011;59503;53.486;10.196;2022-10-26T01:51:52;42.83;;;9.55;;
71665;SDS011;59503;53.486;10.196;2022-10-26T01:54:17;51.00;;;11.03;;
71665;SDS011;59503;53.486;10.196;2022-10-26T01:56:52;57.88;;;11.50;;
71665;SDS011;59503;53.486;10.196;2022-10-26T02:05:31;53.03;;;11.25;;
71665;SDS011;59503;53.486;10.196;2022-10-26T02:08:20;47.55;;;10.20;;
71665;SDS011;59503;53.486;10.196;2022-10-26T02:18:36;51.83;;;11.30;;
71665;SDS011;59503;53.486;10.196;2022-10-26T02:21:14;61.13;;;11.13;;
71665;SDS011;59503;53.486;10.196;2022-10-26T02:23:44;67.70;;;12.63;;
71665;SDS011;59503;53.486;10.196;2022-10-26T02:26:12;62.97;;;11.90;;
71665;SDS011;59503;53.486;10.196;2022-10-26T02:28:46;65.65;;;12.18;;
71665;SDS011;59503;53.486;10.196;2022-10-26T02:31:14;70.82;;;12.52;;
71665;SDS011;59503;53.486;10.196;2022-10-26T02:33:44;76.85;;;12.60;;
71665;SDS011;59503;53.486;10.196;2022-10-26T02:36:14;68.13;;;14.15;;
71665;SDS011;59503;53.486;10.196;2022-10-26T02:38:46;80.47;;;13.97;;
71665;SDS011;59503;53.486;10.196;2022-10-26T02:41:14;73.85;;;14.40;;
71665;SDS011;59503;53.486;10.196;2022-10-26T02:43:42;74.65;;;13.60;;
71665;SDS011;59503;53.486;10.196;2022-10-26T02:46:14;80.95;;;14.10;;
71665;SDS011;59503;53.486;10.196;2022-10-26T02:48:42;74.10;;;13.35;;
71665;SDS011;59503;53.486;10.196;2022-10-26T02:51:10;72.23;;;13.77;;
71665;SDS011;59503;53.486;10.196;2022-10-26T02:53:43;79.35;;;13.65;;
71665;SDS011;59503;53.486;10.196;2022-10-26T02:56:15;64.75;;;12.15;;
71665;SDS011;59503;53.486;10.196;2022-10-26T02:58:46;70.05;;;11.85;;
71665;SDS011;59503;53.486;10.196;2022-10-26T03:01:19;57.45;;;11.88;;
71665;SDS011;59503;53.486;10.196;2022-10-26T03:03:45;67.67;;;11.93;;
71665;SDS011;59503;53.486;10.196;2022-10-26T03:06:11;62.05;;;11.98;;
71665;SDS011;59503;53.486;10.196;2022-10-26T03:08:44;48.85;;;9.80;;
71665;SDS011;59503;53.486;10.196;2022-10-26T03:11:09;49.40;;;9.60;;
71665;SDS011;59503;53.486;10.196;2022-10-26T03:13:37;70.05;;;12.27;;
71665;SDS011;59503;53.486;10.196;2022-10-26T03:16:02;62.20;;;12.30;;
71665;SDS011;59503;53.486;10.196;2022-10-26T03:18:28;72.40;;;13.37;;
71665;SDS011;59503;53.486;10.196;2022-10-26T03:20:53;71.60;;;13.20;;
71665;SDS011;59503;53.486;10.196;2022-10-26T03:23:19;59.17;;;10.83;;
71665;SDS011;59503;53.486;10.196;2022-10-26T03:25:44;59.50;;;11.87;;
71665;SDS011;59503;53.486;10.196;2022-10-26T03:28:10;64.47;;;12.73;;
71665;SDS011;59503;53.486;10.196;2022-10-26T03:30:35;66.70;;;13.23;;
71665;SDS011;59503;53.486;10.196;2022-10-26T03:33:00;64.00;;;12.20;;
71665;SDS011;59503;53.486;10.196;2022-10-26T03:35:26;61.57;;;12.17;;
71665;SDS011;59503;53.486;10.196;2022-10-26T03:37:51;56.57;;;11.30;;
71665;SDS011;59503;53.486;10.196;2022-10-26T03:40:17;55.22;;;10.77;;
71665;SDS011;59503;53.486;10.196;2022-10-26T03:42:42;57.00;;;11.63;;
71665;SDS011;59503;53.486;10.196;2022-10-26T03:45:08;50.97;;;10.60;;
71665;SDS011;59503;53.486;10.196;2022-10-26T03:47:34;52.67;;;11.18;;
71665;SDS011;59503;53.486;10.196;2022-10-26T03:50:06;59.17;;;11.95;;
71665;SDS011;59503;53.486;10.196;2022-10-26T03:52:32;44.47;;;10.37;;
71665;SDS011;59503;53.486;10.196;2022-10-26T03:54:58;62.33;;;11.32;;
71665;SDS011;59503;53.486;10.196;2022-10-26T03:57:23;47.40;;;9.53;;
71665;SDS011;59503;53.486;10.196;2022-10-26T03:59:49;52.93;;;10.63;;
71665;SDS011;59503;53.486;10.196;2022-10-26T04:02:14;63.00;;;12.52;;
71665;SDS011;59503;53.486;10.196;2022-10-26T04:04:40;60.43;;;10.87;;
71665;SDS011;59503;53.486;10.196;2022-10-26T04:07:05;72.03;;;13.17;;
71665;SDS011;59503;53.486;10.196;2022-10-26T04:09:30;62.83;;;11.27;;
71665;SDS011;59503;53.486;10.196;2022-10-26T04:11:56;55.95;;;10.93;;
71665;SDS011;59503;53.486;10.196;2022-10-26T04:14:21;73.20;;;13.13;;
71665;SDS011;59503;53.486;10.196;2022-10-26T04:16:47;62.33;;;12.20;;
71665;SDS011;59503;53.486;10.196;2022-10-26T04:19:12;55.20;;;11.87;;
71665;SDS011;59503;53.486;10.196;2022-10-26T04:21:38;83.65;;;14.50;;
71665;SDS011;59503;53.486;10.196;2022-10-26T04:24:03;87.63;;;12.80;;
71665;SDS011;59503;53.486;10.196;2022-10-26T04:26:29;91.35;;;14.50;;
71665;SDS011;59503;53.486;10.196;2022-10-26T04:28:54;81.57;;;14.50;;
71665;SDS011;59503;53.486;10.196;2022-10-26T04:31:20;87.50;;;14.37;;
71665;SDS011;59503;53.486;10.196;2022-10-26T04:33:45;113.20;;;16.73;;
71665;SDS011;59503;53.486;10.196;2022-10-26T04:36:11;90.20;;;14.80;;
71665;SDS011;59503;53.486;10.196;2022-10-26T04:38:36;122.73;;;17.63;;
71665;SDS011;59503;53.486;10.196;2022-10-26T04:41:02;133.60;;;18.67;;
71665;SDS011;59503;53.486;10.196;2022-10-26T04:43:28;115.30;;;16.95;;
71665;SDS011;59503;53.486;10.196;2022-10-26T04:45:56;128.98;;;18.05;;
71665;SDS011;59503;53.486;10.196;2022-10-26T04:48:22;123.67;;;18.10;;
71665;SDS011;59503;53.486;10.196;2022-10-26T04:50:48;114.63;;;16.85;;
71665;SDS011;59503;53.486;10.196;2022-10-26T04:53:14;119.72;;;17.42;;
71665;SDS011;59503;53.486;10.196;2022-10-26T04:55:40;120.37;;;16.73;;
71665;SDS011;59503;53.486;10.196;2022-10-26T04:58:05;95.90;;;15.53;;
71665;SDS011;59503;53.486;10.196;2022-10-26T05:00:31;132.40;;;17.63;;
71665;SDS011;59503;53.486;10.196;2022-10-26T05:03:04;109.00;;;17.00;;
71665;SDS011;59503;53.486;10.196;2022-10-26T05:05:31;121.40;;;18.20;;
71665;SDS011;59503;53.486;10.196;2022-10-26T05:07:58;124.53;;;16.90;;
71665;SDS011;59503;53.486;10.196;2022-10-26T05:10:24;96.57;;;16.03;;
71665;SDS011;59503;53.486;10.196;2022-10-26T05:12:53;97.50;;;14.40;;
71665;SDS011;59503;53.486;10.196;2022-10-26T05:15:20;126.20;;;16.70;;
71665;SDS011;59503;53.486;10.196;2022-10-26T05:17:45;122.55;;;17.17;;
71665;SDS011;59503;53.486;10.196;2022-10-26T05:20:11;112.27;;;16.67;;
71665;SDS011;59503;53.486;10.196;2022-10-26T05:22:41;105.55;;;15.15;;
71665;SDS011;59503;53.486;10.196;2022-10-26T05:25:06;103.68;;;15.63;;
71665;SDS011;59503;53.486;10.196;2022-10-26T05:27:32;109.30;;;17.10;;
71665;SDS011;59503;53.486;10.196;2022-10-26T05:29:59;118.13;;;16.53;;
71665;SDS011;59503;53.486;10.196;2022-10-26T05:32:24;127.47;;;18.55;;
71665;SDS011;59503;53.486;10.196;2022-10-26T05:34:49;108.03;;;17.27;;
71665;SDS011;59503;53.486;10.196;2022-10-26T05:37:15;127.05;;;17.50;;
71665;SDS011;59503;53.486;10.196;2022-10-26T05:39:41;103.60;;;15.20;;
71665;SDS011;59503;53.486;10.196;2022-10-26T05:42:07;89.95;;;14.40;;
71665;SDS011;59503;53.486;10.196;2022-10-26T05:44:33;78.33;;;14.00;;
71665;SDS011;59503;53.486;10.196;2022-10-26T05:46:58;81.60;;;13.90;;
71665;SDS011;59503;53.486;10.196;2022-10-26T05:49:23;85.45;;;13.98;;
71665;SDS011;59503;53.486;10.196;2022-10-26T05:51:49;88.37;;;14.83;;
71665;SDS011;59503;53.486;10.196;2022-10-26T05:54:14;95.30;;;15.57;;
71665;SDS011;59503;53.486;10.196;2022-10-26T05:56:40;105.37;;;19.03;;
71665;SDS011;59503;53.486;10.196;2022-10-26T05:59:10;134.40;;;20.77;;
71665;SDS011;59503;53.486;10.196;2022-10-26T06:07:03;107.57;;;16.57;;
71665;SDS011;59503;53.486;10.196;2022-10-26T06:09:35;108.88;;;17.08;;
71665;SDS011;59503;53.486;10.196;2022-10-26T06:12:02;113.15;;;18.02;;
71665;SDS011;59503;53.486;10.196;2022-10-26T06:14:28;112.57;;;19.08;;
71665;SDS011;59503;53.486;10.196;2022-10-26T06:20:08;114.53;;;18.70;;
71665;SDS011;59503;53.486;10.196;2022-10-26T06:31:11;123.45;;;18.88;;
71665;SDS011;59503;53.486;10.196;2022-10-26T06:33:38;97.75;;;16.83;;
71665;SDS011;59503;53.486;10.196;2022-10-26T06:38:47;126.25;;;21.02;;
71665;SDS011;59503;53.486;10.196;2022-10-26T06:41:15;101.65;;;19.17;;
71665;SDS011;59503;53.486;10.196;2022-10-26T06:43:43;124.03;;;19.75;;
71665;SDS011;59503;53.486;10.196;2022-10-26T06:48:43;102.83;;;18.63;;
71665;SDS011;59503;53.486;10.196;2022-10-26T06:51:16;77.32;;;15.18;;
71665;SDS011;59503;53.486;10.196;2022-10-26T06:54:04;87.40;;;16.70;;
71665;SDS011;59503;53.486;10.196;2022-10-26T06:56:38;83.47;;;14.35;;
71665;SDS011;59503;53.486;10.196;2022-10-26T06:59:07;76.75;;;14.60;;
71665;SDS011;59503;53.486;10.196;2022-10-26T07:01:41;75.47;;;15.13;;
71665;SDS011;59503;53.486;10.196;2022-10-26T07:04:07;108.45;;;18.65;;
71665;SDS011;59503;53.486;10.196;2022-10-26T07:06:32;90.13;;;17.20;;
71665;SDS011;59503;53.486;10.196;2022-10-26T07:08:58;114.80;;;19.30;;
71665;SDS011;59503;53.486;10.196;2022-10-26T07:11:23;123.60;;;21.00;;
71665;SDS011;59503;53.486;10.196;2022-10-26T07:13:48;124.87;;;21.60;;
71665;SDS011;59503;53.486;10.196;2022-10-26T07:16:15;122.37;;;19.73;;
71665;SDS011;59503;53.486;10.196;2022-10-26T07:18:41;124.47;;;19.98;;
71665;SDS011;59503;53.486;10.196;2022-10-26T07:21:06;120.83;;;21.60;;
71665;SDS011;59503;53.486;10.196;2022-10-26T07:23:32;127.27;;;19.77;;
71665;SDS011;59503;53.486;10.196;2022-10-26T07:26:00;99.87;;;18.07;;
71665;SDS011;59503;53.486;10.196;2022-10-26T07:28:26;108.07;;;20.00;;
71665;SDS011;59503;53.486;10.196;2022-10-26T07:30:51;103.00;;;19.13;;
71665;SDS011;59503;53.486;10.196;2022-10-26T07:33:17;109.47;;;19.83;;
71665;SDS011;59503;53.486;10.196;2022-10-26T07:35:43;87.68;;;17.67;;
71665;SDS011;59503;53.486;10.196;2022-10-26T07:38:08;118.90;;;21.90;;
71665;SDS011;59503;53.486;10.196;2022-10-26T07:40:36;97.82;;;18.30;;
71665;SDS011;59503;53.486;10.196;2022-10-26T07:43:02;115.45;;;20.23;;
71665;SDS011;59503;53.486;10.196;2022-10-26T07:45:28;95.63;;;19.27;;
71665;SDS011;59503;53.486;10.196;2022-10-26T07:47:54;98.63;;;18.70;;
71665;SDS011;59503;53.486;10.196;2022-10-26T07:50:19;99.97;;;18.33;;
71665;SDS011;59503;53.486;10.196;2022-10-26T07:52:45;94.15;;;19.52;;
71665;SDS011;59503;53.486;10.196;2022-10-26T07:55:11;88.67;;;16.40;;
71665;SDS011;59503;53.486;10.196;2022-10-26T07:57:37;91.28;;;19.02;;
71665;SDS011;59503;53.486;10.196;2022-10-26T08:00:04;83.00;;;16.87;;
71665;SDS011;59503;53.486;10.196;2022-10-26T08:02:33;81.15;;;17.05;;
71665;SDS011;59503;53.486;10.196;2022-10-26T08:04:59;85.13;;;17.85;;
71665;SDS011;59503;53.486;10.196;2022-10-26T08:07:24;83.47;;;17.90;;
71665;SDS011;59503;53.486;10.196;2022-10-26T08:09:50;81.95;;;18.00;;
71665;SDS011;59503;53.486;10.196;2022-10-26T08:12:16;80.07;;;18.42;;
71665;SDS011;59503;53.486;10.196;2022-10-26T08:14:41;87.53;;;18.53;;
71665;SDS011;59503;53.486;10.196;2022-10-26T08:17:07;68.67;;;17.63;;
71665;SDS011;59503;53.486;10.196;2022-10-26T08:19:33;79.43;;;16.63;;
71665;SDS011;59503;53.486;10.196;2022-10-26T08:21:58;54.30;;;15.27;;
71665;SDS011;59503;53.486;10.196;2022-10-26T08:24:24;49.13;;;14.50;;
71665;SDS011;59503;53.486;10.196;2022-10-26T08:26:49;44.15;;;13.45;;
71665;SDS011;59503;53.486;10.196;2022-10-26T08:29:15;44.30;;;14.13;;
71665;SDS011;59503;53.486;10.196;2022-10-26T08:31:40;35.87;;;11.73;;
71665;SDS011;59503;53.486;10.196;2022-10-26T08:34:05;27.33;;;11.82;;
71665;SDS011;59503;53.486;10.196;2022-10-26T08:36:31;27.13;;;10.60;;
71665;SDS011;59503;53.486;10.196;2022-10-26T08:38:56;25.13;;;10.47;;
71665;SDS011;59503;53.486;10.196;2022-10-26T08:41:40;27.17;;;9.80;;
71665;SDS011;59503;53.486;10.196;2022-10-26T08:46:44;23.85;;;9.73;;
71665;SDS011;59503;53.486;10.196;2022-10-26T08:49:24;23.50;;;10.15;;
71665;SDS011;59503;53.486;10.196;2022-10-26T08:51:54;18.13;;;9.17;;
71665;SDS011;59503;53.486;10.196;2022-10-26T08:54:37;21.17;;;9.20;;
71665;SDS011;59503;53.486;10.196;2022-10-26T08:57:14;19.45;;;9.63;;
71665;SDS011;59503;53.486;10.196;2022-10-26T08:59:55;17.52;;;8.98;;
71665;SDS011;59503;53.486;10.196;2022-10-26T09:02:24;20.80;;;9.77;;
71665;SDS011;59503;53.486;10.196;2022-10-26T09:04:50;18.13;;;8.70;;
71665;SDS011;59503;53.486;10.196;2022-10-26T09:07:20;18.73;;;9.20;;
71665;SDS011;59503;53.486;10.196;2022-10-26T09:25:40;17.17;;;7.80;;
71665;SDS011;59503;53.486;10.196;2022-10-26T09:28:10;14.10;;;7.40;;
71665;SDS011;59503;53.486;10.196;2022-10-26T09:30:40;15.80;;;7.40;;
71665;SDS011;59503;53.486;10.196;2022-10-26T09:33:11;12.32;;;6.47;;
71665;SDS011;59503;53.486;10.196;2022-10-26T09:36:00;12.93;;;7.20;;
71665;SDS011;59503;53.486;10.196;2022-10-26T09:38:29;13.90;;;7.05;;
71665;SDS011;59503;53.486;10.196;2022-10-26T09:40:58;11.50;;;6.78;;
71665;SDS011;59503;53.486;10.196;2022-10-26T09:46:21;15.88;;;6.55;;
71665;SDS011;59503;53.486;10.196;2022-10-26T09:48:55;14.32;;;7.03;;
71665;SDS011;59503;53.486;10.196;2022-10-26T09:51:24;12.30;;;7.43;;
71665;SDS011;59503;53.486;10.196;2022-10-26T09:53:51;14.18;;;6.60;;
71665;SDS011;59503;53.486;10.196;2022-10-26T09:56:18;14.87;;;6.80;;
71665;SDS011;59503;53.486;10.196;2022-10-26T09:58:45;11.35;;;6.45;;
71665;SDS011;59503;53.486;10.196;2022-10-26T10:01:34;16.00;;;6.47;;
71665;SDS011;59503;53.486;10.196;2022-10-26T10:04:08;12.03;;;6.50;;
71665;SDS011;59503;53.486;10.196;2022-10-26T10:09:24;19.13;;;6.63;;
71665;SDS011;59503;53.486;10.196;2022-10-26T10:11:51;17.52;;;7.30;;
71665;SDS011;59503;53.486;10.196;2022-10-26T10:16:59;14.48;;;6.75;;
71665;SDS011;59503;53.486;10.196;2022-10-26T10:19:31;15.07;;;6.82;;
71665;SDS011;59503;53.486;10.196;2022-10-26T10:21:58;12.90;;;6.50;;
71665;SDS011;59503;53.486;10.196;2022-10-26T10:29:49;18.42;;;6.25;;
71665;SDS011;59503;53.486;10.196;2022-10-26T10:32:20;13.70;;;7.23;;
71665;SDS011;59503;53.486;10.196;2022-10-26T10:34:53;13.18;;;6.60;;
71665;SDS011;59503;53.486;10.196;2022-10-26T10:37:29;14.82;;;7.10;;
71665;SDS011;59503;53.486;10.196;2022-10-26T10:42:47;14.88;;;7.38;;
71665;SDS011;59503;53.486;10.196;2022-10-26T10:45:18;13.77;;;6.60;;
71665;SDS011;59503;53.486;10.196;2022-10-26T10:48:00;12.75;;;7.35;;
71665;SDS011;59503;53.486;10.196;2022-10-26T10:50:28;12.27;;;6.68;;
71665;SDS011;59503;53.486;10.196;2022-10-26T10:55:54;13.38;;;6.57;;
71665;SDS011;59503;53.486;10.196;2022-10-26T11:01:14;12.48;;;6.68;;
71665;SDS011;59503;53.486;10.196;2022-10-26T11:03:56;18.48;;;7.18;;
71665;SDS011;59503;53.486;10.196;2022-10-26T11:06:43;10.35;;;6.35;;
71665;SDS011;59503;53.486;10.196;2022-10-26T11:09:11;12.13;;;6.65;;
71665;SDS011;59503;53.486;10.196;2022-10-26T11:11:42;14.90;;;7.03;;
71665;SDS011;59503;53.486;10.196;2022-10-26T11:16:46;15.48;;;7.25;;
71665;SDS011;59503;53.486;10.196;2022-10-26T11:21:54;13.90;;;6.78;;
71665;SDS011;59503;53.486;10.196;2022-10-26T11:24:22;16.77;;;6.97;;
71665;SDS011;59503;53.486;10.196;2022-10-26T11:27:10;13.13;;;6.40;;
71665;SDS011;59503;53.486;10.196;2022-10-26T11:29:49;13.27;;;6.30;;
71665;SDS011;59503;53.486;10.196;2022-10-26T11:32:23;13.38;;;6.80;;
71665;SDS011;59503;53.486;10.196;2022-10-26T11:37:47;14.00;;;6.47;;
71665;SDS011;59503;53.486;10.196;2022-10-26T11:45:39;13.57;;;6.65;;
71665;SDS011;59503;53.486;10.196;2022-10-26T11:50:57;15.33;;;6.27;;
71665;SDS011;59503;53.486;10.196;2022-10-26T11:53:35;12.30;;;5.65;;
71665;SDS011;59503;53.486;10.196;2022-10-26T11:56:09;11.93;;;5.53;;
71665;SDS011;59503;53.486;10.196;2022-10-26T11:58:38;9.15;;;5.10;;
71665;SDS011;59503;53.486;10.196;2022-10-26T12:01:08;11.40;;;4.90;;
71665;SDS011;59503;53.486;10.196;2022-10-26T12:03:38;11.27;;;4.80;;
71665;SDS011;59503;53.486;10.196;2022-10-26T12:06:10;11.93;;;4.97;;
71665;SDS011;59503;53.486;10.196;2022-10-26T12:08:39;7.40;;;3.80;;
71665;SDS011;59503;53.486;10.196;2022-10-26T12:19:14;11.65;;;4.25;;
71665;SDS011;59503;53.486;10.196;2022-10-26T12:21:47;8.98;;;4.20;;
71665;SDS011;59503;53.486;10.196;2022-10-26T12:29:37;11.50;;;3.60;;
71665;SDS011;59503;53.486;10.196;2022-10-26T12:34:58;11.82;;;4.22;;
71665;SDS011;59503;53.486;10.196;2022-10-26T12:37:30;7.47;;;3.65;;
71665;SDS011;59503;53.486;10.196;2022-10-26T12:45:41;9.40;;;4.35;;
71665;SDS011;59503;53.486;10.196;2022-10-26T12:48:23;7.32;;;3.60;;
71665;SDS011;59503;53.486;10.196;2022-10-26T12:53:43;7.10;;;3.60;;
71665;SDS011;59503;53.486;10.196;2022-10-26T12:56:19;4.97;;;2.80;;
71665;SDS011;59503;53.486;10.196;2022-10-26T13:04:11;14.00;;;3.80;;
71665;SDS011;59503;53.486;10.196;2022-10-26T13:09:44;6.97;;;3.17;;
71665;SDS011;59503;53.486;10.196;2022-10-26T13:12:15;7.10;;;3.38;;
71665;SDS011;59503;53.486;10.196;2022-10-26T13:14:50;10.15;;;3.42;;
71665;SDS011;59503;53.486;10.196;2022-10-26T13:17:24;11.00;;;3.40;;
71665;SDS011;59503;53.486;10.196;2022-10-26T13:19:55;8.17;;;3.27;;
71665;SDS011;59503;53.486;10.196;2022-10-26T13:22:30;6.20;;;3.25;;
71665;SDS011;59503;53.486;10.196;2022-10-26T13:24:58;7.85;;;3.05;;
71665;SDS011;59503;53.486;10.196;2022-10-26T13:27:56;6.55;;;3.40;;
71665;SDS011;59503;53.486;10.196;2022-10-26T13:30:40;7.97;;;2.70;;
71665;SDS011;59503;53.486;10.196;2022-10-26T13:33:13;5.00;;;2.47;;
71665;SDS011;59503;53.486;10.196;2022-10-26T13:35:44;6.40;;;2.78;;
71665;SDS011;59503;53.486;10.196;2022-10-26T13:38:11;6.10;;;2.55;;
71665;SDS011;59503;53.486;10.196;2022-10-26T13:40:39;6.35;;;2.60;;
71665;SDS011;59503;53.486;10.196;2022-10-26T13:43:06;5.63;;;2.80;;
71665;SDS011;59503;53.486;10.196;2022-10-26T13:48:46;4.45;;;2.58;;
71665;SDS011;59503;53.486;10.196;2022-10-26T13:51:17;6.40;;;2.50;;
71665;SDS011;59503;53.486;10.196;2022-10-26T13:58:49;5.03;;;2.20;;
71665;SDS011;59503;53.486;10.196;2022-10-26T14:01:21;6.18;;;2.60;;
71665;SDS011;59503;53.486;10.196;2022-10-26T14:03:50;8.38;;;2.50;;
71665;SDS011;59503;53.486;10.196;2022-10-26T14:06:35;7.00;;;2.33;;
71665;SDS011;59503;53.486;10.196;2022-10-26T14:09:06;6.93;;;2.40;;
71665;SDS011;59503;53.486;10.196;2022-10-26T14:14:13;8.00;;;2.80;;
71665;SDS011;59503;53.486;10.196;2022-10-26T14:16:43;6.20;;;1.95;;
71665;SDS011;59503;53.486;10.196;2022-10-26T14:19:18;4.95;;;2.10;;
71665;SDS011;59503;53.486;10.196;2022-10-26T14:21:47;12.10;;;2.60;;
71665;SDS011;59503;53.486;10.196;2022-10-26T14:24:21;10.75;;;1.88;;
71665;SDS011;59503;53.486;10.196;2022-10-26T14:26:51;6.32;;;2.10;;
71665;SDS011;59503;53.486;10.196;2022-10-26T14:29:20;5.27;;;1.60;;
71665;SDS011;59503;53.486;10.196;2022-10-26T14:31:48;4.82;;;1.77;;
71665;SDS011;59503;53.486;10.196;2022-10-26T14:34:14;4.65;;;1.90;;
71665;SDS011;59503;53.486;10.196;2022-10-26T14:36:51;6.40;;;1.50;;
71665;SDS011;59503;53.486;10.196;2022-10-26T14:39:27;6.93;;;1.55;;
71665;SDS011;59503;53.486;10.196;2022-10-26T14:41:57;6.60;;;1.87;;
71665;SDS011;59503;53.486;10.196;2022-10-26T14:44:25;6.13;;;1.50;;
71665;SDS011;59503;53.486;10.196;2022-10-26T14:46:50;6.47;;;1.90;;
71665;SDS011;59503;53.486;10.196;2022-10-26T14:49:17;6.17;;;1.90;;
71665;SDS011;59503;53.486;10.196;2022-10-26T14:51:45;4.78;;;1.55;;
71665;SDS011;59503;53.486;10.196;2022-10-26T14:54:20;6.13;;;1.90;;
71665;SDS011;59503;53.486;10.196;2022-10-26T14:56:47;6.47;;;2.67;;
71665;SDS011;59503;53.486;10.196;2022-10-26T15:01:50;6.60;;;2.17;;
71665;SDS011;59503;53.486;10.196;2022-10-26T15:04:37;7.55;;;2.20;;
71665;SDS011;59503;53.486;10.196;2022-10-26T15:09:41;6.45;;;2.20;;
71665;SDS011;59503;53.486;10.196;2022-10-26T15:12:06;6.00;;;2.30;;
71665;SDS011;59503;53.486;10.196;2022-10-26T15:14:43;5.85;;;2.17;;
71665;SDS011;59503;53.486;10.196;2022-10-26T15:17:17;6.10;;;2.30;;
71665;SDS011;59503;53.486;10.196;2022-10-26T15:19:46;5.18;;;1.90;;
71665;SDS011;59503;53.486;10.196;2022-10-26T15:22:23;10.20;;;2.20;;
71665;SDS011;59503;53.486;10.196;2022-10-26T15:24:58;8.37;;;2.20;;
71665;SDS011;59503;53.486;10.196;2022-10-26T15:27:27;5.13;;;1.80;;
71665;SDS011;59503;53.486;10.196;2022-10-26T15:30:07;4.50;;;1.80;;
71665;SDS011;59503;53.486;10.196;2022-10-26T15:32:42;8.75;;;2.05;;
71665;SDS011;59503;53.486;10.196;2022-10-26T15:37:36;4.83;;;1.57;;
71665;SDS011;59503;53.486;10.196;2022-10-26T15:40:02;6.93;;;2.08;;
71665;SDS011;59503;53.486;10.196;2022-10-26T15:42:28;5.97;;;1.77;;
71665;SDS011;59503;53.486;10.196;2022-10-26T15:44:53;3.83;;;1.90;;
71665;SDS011;59503;53.486;10.196;2022-10-26T15:47:19;7.85;;;2.22;;
71665;SDS011;59503;53.486;10.196;2022-10-26T15:49:45;3.80;;;1.83;;
71665;SDS011;59503;53.486;10.196;2022-10-26T15:52:11;7.38;;;2.58;;
71665;SDS011;59503;53.486;10.196;2022-10-26T15:54:38;5.53;;;2.17;;
71665;SDS011;59503;53.486;10.196;2022-10-26T15:57:04;3.72;;;1.75;;
71665;SDS011;59503;53.486;10.196;2022-10-26T15:59:32;7.63;;;2.22;;
71665;SDS011;59503;53.486;10.196;2022-10-26T16:01:57;6.83;;;2.70;;
71665;SDS011;59503;53.486;10.196;2022-10-26T16:04:24;6.13;;;2.50;;
71665;SDS011;59503;53.486;10.196;2022-10-26T16:06:50;6.87;;;2.50;;
71665;SDS011;59503;53.486;10.196;2022-10-26T16:09:15;4.60;;;2.60;;
71665;SDS011;59503;53.486;10.196;2022-10-26T16:11:42;7.20;;;2.50;;
71665;SDS011;59503;53.486;10.196;2022-10-26T16:14:09;5.18;;;2.60;;
71665;SDS011;59503;53.486;10.196;2022-10-26T16:16:35;7.65;;;2.63;;
71665;SDS011;59503;53.486;10.196;2022-10-26T16:19:01;7.25;;;2.88;;
71665;SDS011;59503;53.486;10.196;2022-10-26T16:21:26;5.00;;;2.50;;
71665;SDS011;59503;53.486;10.196;2022-10-26T16:23:52;8.43;;;3.20;;
71665;SDS011;59503;53.486;10.196;2022-10-26T16:26:20;4.73;;;2.30;;
71665;SDS011;59503;53.486;10.196;2022-10-26T16:28:46;5.70;;;2.75;;
71665;SDS011;59503;53.486;10.196;2022-10-26T16:31:13;6.43;;;3.42;;
71665;SDS011;59503;53.486;10.196;2022-10-26T16:33:40;7.45;;;3.03;;
71665;SDS011;59503;53.486;10.196;2022-10-26T16:36:06;7.70;;;2.83;;
71665;SDS011;59503;53.486;10.196;2022-10-26T16:38:32;6.15;;;2.75;;
71665;SDS011;59503;53.486;10.196;2022-10-26T16:43:34;7.63;;;3.07;;
71665;SDS011;59503;53.486;10.196;2022-10-26T16:46:05;5.97;;;2.95;;
71665;SDS011;59503;53.486;10.196;2022-10-26T16:48:36;9.35;;;3.13;;
71665;SDS011;59503;53.486;10.196;2022-10-26T16:51:06;7.57;;;2.67;;
71665;SDS011;59503;53.486;10.196;2022-10-26T16:53:33;4.93;;;2.60;;
71665;SDS011;59503;53.486;10.196;2022-10-26T16:56:05;7.80;;;3.10;;
71665;SDS011;59503;53.486;10.196;2022-10-26T16:58:32;9.13;;;3.30;;
71665;SDS011;59503;53.486;10.196;2022-10-26T17:00:58;9.65;;;4.03;;
71665;SDS011;59503;53.486;10.196;2022-10-26T17:03:24;9.70;;;3.83;;
71665;SDS011;59503;53.486;10.196;2022-10-26T17:06:08;9.95;;;3.55;;
71665;SDS011;59503;53.486;10.196;2022-10-26T17:08:34;13.63;;;4.38;;
71665;SDS011;59503;53.486;10.196;2022-10-26T17:11:04;9.63;;;3.63;;
71665;SDS011;59503;53.486;10.196;2022-10-26T17:13:35;6.63;;;3.58;;
71665;SDS011;59503;53.486;10.196;2022-10-26T17:16:06;11.23;;;3.97;;
71665;SDS011;59503;53.486;10.196;2022-10-26T17:18:34;12.45;;;4.18;;